sensor_id;sensor_type;location;lat;lon;timestamp;pressure;altitude;pressure_sealevel;temperature;humidity
49723;BME280;43484;43.608;1.458;2022-08-03T00:00:20;99440.66;;;28.07;51.26
49723;BME280;43484;43.608;1.458;2022-08-03T00:02:46;99434.59;;;27.68;52.78
49723;BME280;43484;43.608;1.458;2022-08-03T00:05:13;99431.13;;;27.86;51.55
49723;BME280;43484;43.608;1.458;2022-08-03T00:07:40;99433.41;;;27.75;51.49
49723;BME280;43484;43.608;1.458;2022-08-03T00:10:07;99433.97;;;27.82;50.70
49723;BME280;43484;43.608;1.458;2022-08-03T00:12:35;99428.63;;;27.83;49.90
49723;BME280;43484;43.608;1.458;2022-08-03T00:15:02;99436.81;;;27.77;50.23
49723;BME280;43484;43.608;1.458;2022-08-03T00:17:35;99441.16;;;27.78;49.93
49723;BME280;43484;43.608;1.458;2022-08-03T00:20:22;99443.72;;;27.23;52.40
49723;BME280;43484;43.608;1.458;2022-08-03T00:22:49;99440.81;;;27.29;52.25
49723;BME280;43484;43.608;1.458;2022-08-03T00:25:16;99435.56;;;27.29;52.99
49723;BME280;43484;43.608;1.458;2022-08-03T00:27:43;99442.53;;;27.30;53.20
49723;BME280;43484;43.608;1.458;2022-08-03T00:30:10;99445.47;;;27.22;52.57
49723;BME280;43484;43.608;1.458;2022-08-03T00:32:38;99440.59;;;27.33;52.48
49723;BME280;43484;43.608;1.458;2022-08-03T00:35:11;99442.69;;;27.25;52.91
49723;BME280;43484;43.608;1.458;2022-08-03T00:37:58;99435.56;;;27.29;52.62
49723;BME280;43484;43.608;1.458;2022-08-03T00:40:25;99436.44;;;27.29;52.12
49723;BME280;43484;43.608;1.458;2022-08-03T00:45:23;99432.84;;;26.70;55.82
49723;BME280;43484;43.608;1.458;2022-08-03T00:47:50;99437.03;;;26.54;57.63
49723;BME280;43484;43.608;1.458;2022-08-03T00:50:18;99427.31;;;26.56;57.84
49723;BME280;43484;43.608;1.458;2022-08-03T00:52:45;99434.91;;;26.42;58.59
49723;BME280;43484;43.608;1.458;2022-08-03T00:55:12;99424.09;;;26.28;60.02
49723;BME280;43484;43.608;1.458;2022-08-03T00:57:39;99432.56;;;26.34;59.87
49723;BME280;43484;43.608;1.458;2022-08-03T01:00:09;99423.41;;;26.44;59.91
49723;BME280;43484;43.608;1.458;2022-08-03T01:02:37;99417.00;;;26.30;60.80
49723;BME280;43484;43.608;1.458;2022-08-03T01:05:06;99422.94;;;26.13;62.51
49723;BME280;43484;43.608;1.458;2022-08-03T01:07:40;99418.56;;;26.14;62.87
49723;BME280;43484;43.608;1.458;2022-08-03T01:10:36;99418.00;;;26.06;63.53
49723;BME280;43484;43.608;1.458;2022-08-03T01:13:27;99417.22;;;26.04;64.76
49723;BME280;43484;43.608;1.458;2022-08-03T01:16:27;99418.28;;;25.98;64.66
49723;BME280;43484;43.608;1.458;2022-08-03T01:21:53;99418.78;;;26.08;64.63
49723;BME280;43484;43.608;1.458;2022-08-03T01:27:22;99408.91;;;26.36;61.58
49723;BME280;43484;43.608;1.458;2022-08-03T01:38:02;99401.78;;;25.94;67.00
49723;BME280;43484;43.608;1.458;2022-08-03T01:40:30;99405.25;;;25.73;68.88
49723;BME280;43484;43.608;1.458;2022-08-03T01:43:01;99401.91;;;25.91;69.39
49723;BME280;43484;43.608;1.458;2022-08-03T01:45:29;99400.00;;;25.73;70.53
49723;BME280;43484;43.608;1.458;2022-08-03T01:48:00;99399.09;;;25.74;71.13
49723;BME280;43484;43.608;1.458;2022-08-03T01:50:29;99403.03;;;25.63;72.47
49723;BME280;43484;43.608;1.458;2022-08-03T01:52:57;99413.72;;;25.58;73.88
49723;BME280;43484;43.608;1.458;2022-08-03T01:55:25;99410.91;;;25.63;73.88
49723;BME280;43484;43.608;1.458;2022-08-03T01:57:55;99400.59;;;25.58;74.87
49723;BME280;43484;43.608;1.458;2022-08-03T02:00:32;99406.19;;;25.49;76.29
49723;BME280;43484;43.608;1.458;2022-08-03T02:03:05;99401.75;;;25.51;76.92
49723;BME280;43484;43.608;1.458;2022-08-03T02:05:32;99410.63;;;25.47;77.73
49723;BME280;43484;43.608;1.458;2022-08-03T02:08:02;99405.81;;;25.35;78.56
49723;BME280;43484;43.608;1.458;2022-08-03T02:10:31;99403.28;;;25.32;79.51
49723;BME280;43484;43.608;1.458;2022-08-03T02:13:03;99404.22;;;25.31;80.12
49723;BME280;43484;43.608;1.458;2022-08-03T02:15:31;99408.78;;;25.26;80.79
49723;BME280;43484;43.608;1.458;2022-08-03T02:18:00;99404.41;;;25.27;80.42
49723;BME280;43484;43.608;1.458;2022-08-03T02:20:28;99402.66;;;25.26;78.05
49723;BME280;43484;43.608;1.458;2022-08-03T02:22:58;99409.84;;;25.21;74.65
49723;BME280;43484;43.608;1.458;2022-08-03T02:25:25;99410.59;;;25.24;75.51
49723;BME280;43484;43.608;1.458;2022-08-03T02:27:55;99412.47;;;25.21;75.97
49723;BME280;43484;43.608;1.458;2022-08-03T02:30:28;99411.97;;;25.34;71.15
49723;BME280;43484;43.608;1.458;2022-08-03T02:32:56;99418.97;;;25.58;69.84
49723;BME280;43484;43.608;1.458;2022-08-03T02:35:27;99422.88;;;25.70;68.67
49723;BME280;43484;43.608;1.458;2022-08-03T02:38:02;99421.25;;;25.44;69.71
49723;BME280;43484;43.608;1.458;2022-08-03T02:40:30;99426.47;;;25.67;67.59
49723;BME280;43484;43.608;1.458;2022-08-03T02:43:00;99423.22;;;25.61;65.09
49723;BME280;43484;43.608;1.458;2022-08-03T02:45:30;99419.19;;;25.52;63.37
49723;BME280;43484;43.608;1.458;2022-08-03T02:48:02;99427.41;;;25.43;63.45
49723;BME280;43484;43.608;1.458;2022-08-03T02:50:31;99428.03;;;25.50;62.21
49723;BME280;43484;43.608;1.458;2022-08-03T02:53:00;99429.47;;;25.34;62.30
49723;BME280;43484;43.608;1.458;2022-08-03T02:55:29;99423.59;;;25.27;62.14
49723;BME280;43484;43.608;1.458;2022-08-03T02:57:57;99430.31;;;25.34;61.18
49723;BME280;43484;43.608;1.458;2022-08-03T03:00:28;99435.28;;;25.43;60.09
49723;BME280;43484;43.608;1.458;2022-08-03T03:02:57;99425.84;;;25.38;59.22
49723;BME280;43484;43.608;1.458;2022-08-03T03:05:26;99428.88;;;25.26;59.21
49723;BME280;43484;43.608;1.458;2022-08-03T03:08:15;99419.50;;;24.96;61.46
49723;BME280;43484;43.608;1.458;2022-08-03T03:10:46;99415.59;;;25.07;60.90
49723;BME280;43484;43.608;1.458;2022-08-03T03:13:14;99429.25;;;25.17;60.13
49723;BME280;43484;43.608;1.458;2022-08-03T03:15:42;99422.59;;;24.82;62.57
49723;BME280;43484;43.608;1.458;2022-08-03T03:18:11;99426.81;;;24.60;64.37
49723;BME280;43484;43.608;1.458;2022-08-03T03:20:38;99430.88;;;24.44;65.99
49723;BME280;43484;43.608;1.458;2022-08-03T03:23:08;99430.47;;;24.82;62.93
49723;BME280;43484;43.608;1.458;2022-08-03T03:25:35;99425.56;;;24.98;61.17
49723;BME280;43484;43.608;1.458;2022-08-03T03:28:03;99430.69;;;25.01;60.93
49723;BME280;43484;43.608;1.458;2022-08-03T03:30:32;99432.88;;;24.88;61.40
49723;BME280;43484;43.608;1.458;2022-08-03T03:32:58;99433.31;;;24.76;63.45
49723;BME280;43484;43.608;1.458;2022-08-03T03:35:26;99427.41;;;24.69;63.82
49723;BME280;43484;43.608;1.458;2022-08-03T03:37:53;99426.25;;;24.78;63.31
49723;BME280;43484;43.608;1.458;2022-08-03T03:40:21;99424.75;;;24.71;63.67
49723;BME280;43484;43.608;1.458;2022-08-03T03:42:48;99431.78;;;24.94;61.93
49723;BME280;43484;43.608;1.458;2022-08-03T03:45:16;99435.00;;;24.77;64.07
49723;BME280;43484;43.608;1.458;2022-08-03T03:47:43;99437.50;;;24.54;64.42
49723;BME280;43484;43.608;1.458;2022-08-03T03:50:12;99443.19;;;24.40;67.04
49723;BME280;43484;43.608;1.458;2022-08-03T03:52:41;99444.34;;;24.32;68.41
49723;BME280;43484;43.608;1.458;2022-08-03T03:55:07;99439.66;;;24.43;68.18
49723;BME280;43484;43.608;1.458;2022-08-03T03:57:34;99440.91;;;24.30;69.25
49723;BME280;43484;43.608;1.458;2022-08-03T04:00:00;99439.38;;;24.24;70.59
49723;BME280;43484;43.608;1.458;2022-08-03T04:02:27;99440.38;;;24.20;70.47
49723;BME280;43484;43.608;1.458;2022-08-03T04:04:54;99447.78;;;24.34;70.32
49723;BME280;43484;43.608;1.458;2022-08-03T04:07:57;99453.31;;;24.25;72.04
49723;BME280;43484;43.608;1.458;2022-08-03T04:13:38;99457.31;;;24.09;73.65
49723;BME280;43484;43.608;1.458;2022-08-03T04:16:09;99450.28;;;24.11;74.22
49723;BME280;43484;43.608;1.458;2022-08-03T04:18:39;99456.06;;;24.20;74.29
49723;BME280;43484;43.608;1.458;2022-08-03T04:21:08;99452.47;;;24.50;71.73
49723;BME280;43484;43.608;1.458;2022-08-03T04:23:42;99447.63;;;24.38;72.39
49723;BME280;43484;43.608;1.458;2022-08-03T04:26:12;99463.31;;;24.12;75.31
49723;BME280;43484;43.608;1.458;2022-08-03T04:28:41;99470.69;;;24.00;78.46
49723;BME280;43484;43.608;1.458;2022-08-03T04:31:10;99465.38;;;24.03;81.36
49723;BME280;43484;43.608;1.458;2022-08-03T04:33:38;99464.09;;;24.16;80.23
49723;BME280;43484;43.608;1.458;2022-08-03T04:36:08;99461.59;;;24.39;82.12
49723;BME280;43484;43.608;1.458;2022-08-03T04:38:49;99465.72;;;24.46;83.20
49723;BME280;43484;43.608;1.458;2022-08-03T04:41:19;99476.00;;;24.52;83.81
49723;BME280;43484;43.608;1.458;2022-08-03T04:43:49;99479.41;;;24.28;87.62
49723;BME280;43484;43.608;1.458;2022-08-03T04:46:18;99478.28;;;24.35;87.23
49723;BME280;43484;43.608;1.458;2022-08-03T04:48:47;99489.06;;;24.26;88.57
49723;BME280;43484;43.608;1.458;2022-08-03T04:51:15;99491.50;;;23.74;92.44
49723;BME280;43484;43.608;1.458;2022-08-03T04:53:43;99494.78;;;23.51;95.66
49723;BME280;43484;43.608;1.458;2022-08-03T04:56:09;99497.53;;;23.46;98.26
49723;BME280;43484;43.608;1.458;2022-08-03T04:58:36;99502.59;;;23.52;98.81
49723;BME280;43484;43.608;1.458;2022-08-03T05:01:03;99501.03;;;23.76;95.52
49723;BME280;43484;43.608;1.458;2022-08-03T05:03:29;99499.09;;;24.12;93.00
49723;BME280;43484;43.608;1.458;2022-08-03T05:05:57;99502.06;;;24.01;92.70
49723;BME280;43484;43.608;1.458;2022-08-03T05:08:35;99505.25;;;23.80;95.46
49723;BME280;43484;43.608;1.458;2022-08-03T05:11:11;99506.56;;;23.66;96.77
49723;BME280;43484;43.608;1.458;2022-08-03T05:13:38;99511.16;;;23.58;98.30
49723;BME280;43484;43.608;1.458;2022-08-03T05:16:06;99517.03;;;23.66;97.19
49723;BME280;43484;43.608;1.458;2022-08-03T05:18:32;99512.88;;;23.58;98.43
49723;BME280;43484;43.608;1.458;2022-08-03T05:20:59;99516.50;;;23.53;98.72
49723;BME280;43484;43.608;1.458;2022-08-03T05:23:26;99514.63;;;23.58;98.63
49723;BME280;43484;43.608;1.458;2022-08-03T05:25:52;99514.56;;;23.59;99.05
49723;BME280;43484;43.608;1.458;2022-08-03T05:28:19;99512.78;;;23.62;99.18
49723;BME280;43484;43.608;1.458;2022-08-03T05:30:46;99518.81;;;23.64;98.53
49723;BME280;43484;43.608;1.458;2022-08-03T05:33:13;99520.06;;;23.50;99.18
49723;BME280;43484;43.608;1.458;2022-08-03T05:35:39;99518.91;;;23.61;98.51
49723;BME280;43484;43.608;1.458;2022-08-03T05:38:26;99525.81;;;23.63;97.23
49723;BME280;43484;43.608;1.458;2022-08-03T05:40:55;99527.34;;;23.70;97.03
49723;BME280;43484;43.608;1.458;2022-08-03T05:43:42;99527.78;;;23.86;94.54
49723;BME280;43484;43.608;1.458;2022-08-03T05:46:09;99526.88;;;23.87;93.94
49723;BME280;43484;43.608;1.458;2022-08-03T05:48:38;99526.16;;;23.82;93.71
49723;BME280;43484;43.608;1.458;2022-08-03T05:51:05;99527.41;;;23.99;92.04
49723;BME280;43484;43.608;1.458;2022-08-03T05:53:38;99528.19;;;24.03;91.98
49723;BME280;43484;43.608;1.458;2022-08-03T05:56:05;99527.13;;;24.08;90.93
49723;BME280;43484;43.608;1.458;2022-08-03T05:58:44;99521.47;;;24.22;90.19
49723;BME280;43484;43.608;1.458;2022-08-03T06:01:11;99532.91;;;24.19;91.11
49723;BME280;43484;43.608;1.458;2022-08-03T06:03:38;99532.72;;;24.25;90.33
49723;BME280;43484;43.608;1.458;2022-08-03T06:06:05;99530.00;;;24.28;90.90
49723;BME280;43484;43.608;1.458;2022-08-03T06:08:31;99530.59;;;24.38;90.63
49723;BME280;43484;43.608;1.458;2022-08-03T06:10:58;99531.47;;;24.37;88.85
49723;BME280;43484;43.608;1.458;2022-08-03T06:13:25;99530.09;;;24.53;87.83
49723;BME280;43484;43.608;1.458;2022-08-03T06:15:51;99531.00;;;24.52;88.03
49723;BME280;43484;43.608;1.458;2022-08-03T06:18:18;99532.72;;;24.53;86.91
49723;BME280;43484;43.608;1.458;2022-08-03T06:20:45;99536.13;;;24.55;87.54
49723;BME280;43484;43.608;1.458;2022-08-03T06:23:14;99530.75;;;24.59;89.19
49723;BME280;43484;43.608;1.458;2022-08-03T06:25:43;99539.22;;;24.69;86.64
49723;BME280;43484;43.608;1.458;2022-08-03T06:28:11;99542.69;;;24.69;87.01
49723;BME280;43484;43.608;1.458;2022-08-03T06:30:59;99541.31;;;24.84;87.12
49723;BME280;43484;43.608;1.458;2022-08-03T06:33:26;99539.19;;;24.95;86.50
49723;BME280;43484;43.608;1.458;2022-08-03T06:36:13;99541.75;;;24.98;86.55
49723;BME280;43484;43.608;1.458;2022-08-03T06:38:39;99551.13;;;25.04;85.55
49723;BME280;43484;43.608;1.458;2022-08-03T06:41:07;99558.06;;;25.06;85.51
49723;BME280;43484;43.608;1.458;2022-08-03T06:43:33;99557.13;;;25.07;87.08
49723;BME280;43484;43.608;1.458;2022-08-03T06:46:03;99553.41;;;25.14;87.25
49723;BME280;43484;43.608;1.458;2022-08-03T06:48:31;99565.53;;;25.18;89.01
49723;BME280;43484;43.608;1.458;2022-08-03T06:50:57;99568.69;;;25.28;87.67
49723;BME280;43484;43.608;1.458;2022-08-03T06:53:24;99562.19;;;25.39;86.60
49723;BME280;43484;43.608;1.458;2022-08-03T06:55:52;99568.28;;;25.40;87.98
49723;BME280;43484;43.608;1.458;2022-08-03T06:58:21;99563.09;;;25.38;88.63
49723;BME280;43484;43.608;1.458;2022-08-03T07:00:48;99570.69;;;25.46;89.25
49723;BME280;43484;43.608;1.458;2022-08-03T07:03:15;99571.44;;;25.49;89.58
49723;BME280;43484;43.608;1.458;2022-08-03T07:05:42;99579.06;;;25.57;92.45
49723;BME280;43484;43.608;1.458;2022-08-03T07:08:12;99570.97;;;25.63;91.36
49723;BME280;43484;43.608;1.458;2022-08-03T07:10:39;99579.22;;;25.77;89.31
49723;BME280;43484;43.608;1.458;2022-08-03T07:13:06;99573.66;;;25.84;89.57
49723;BME280;43484;43.608;1.458;2022-08-03T07:15:33;99572.78;;;25.84;92.76
49723;BME280;43484;43.608;1.458;2022-08-03T07:18:20;99577.78;;;25.91;92.28
49723;BME280;43484;43.608;1.458;2022-08-03T07:20:56;99581.97;;;25.97;93.36
49723;BME280;43484;43.608;1.458;2022-08-03T07:23:23;99582.50;;;26.07;92.49
49723;BME280;43484;43.608;1.458;2022-08-03T07:25:51;99579.47;;;26.17;94.57
49723;BME280;43484;43.608;1.458;2022-08-03T07:28:18;99575.59;;;26.27;93.69
49723;BME280;43484;43.608;1.458;2022-08-03T07:30:45;99566.59;;;26.33;94.71
49723;BME280;43484;43.608;1.458;2022-08-03T07:33:12;99563.00;;;26.35;95.04
49723;BME280;43484;43.608;1.458;2022-08-03T07:35:38;99567.19;;;26.41;96.06
49723;BME280;43484;43.608;1.458;2022-08-03T07:38:05;99572.38;;;26.42;97.77
49723;BME280;43484;43.608;1.458;2022-08-03T07:40:32;99561.69;;;26.47;99.35
49723;BME280;43484;43.608;1.458;2022-08-03T07:42:59;99567.72;;;26.49;99.55
49723;BME280;43484;43.608;1.458;2022-08-03T07:45:25;99572.72;;;26.55;100.00
49723;BME280;43484;43.608;1.458;2022-08-03T07:47:52;99571.59;;;26.62;100.00
49723;BME280;43484;43.608;1.458;2022-08-03T07:50:20;99576.78;;;26.63;100.00
49723;BME280;43484;43.608;1.458;2022-08-03T07:52:48;99578.47;;;26.66;100.00
49723;BME280;43484;43.608;1.458;2022-08-03T07:55:20;99572.16;;;26.70;100.00
49723;BME280;43484;43.608;1.458;2022-08-03T07:58:10;99578.09;;;26.75;100.00
49723;BME280;43484;43.608;1.458;2022-08-03T08:00:44;99580.53;;;26.79;100.00
49723;BME280;43484;43.608;1.458;2022-08-03T08:03:11;99580.09;;;26.90;100.00
49723;BME280;43484;43.608;1.458;2022-08-03T08:05:38;99581.56;;;26.97;100.00
49723;BME280;43484;43.608;1.458;2022-08-03T08:08:05;99587.56;;;27.00;100.00
49723;BME280;43484;43.608;1.458;2022-08-03T08:10:32;99589.13;;;27.04;100.00
49723;BME280;43484;43.608;1.458;2022-08-03T08:12:59;99582.03;;;27.06;100.00
49723;BME280;43484;43.608;1.458;2022-08-03T08:15:27;99594.09;;;27.12;100.00
49723;BME280;43484;43.608;1.458;2022-08-03T08:17:55;99588.88;;;27.10;100.00
49723;BME280;43484;43.608;1.458;2022-08-03T08:20:24;99585.41;;;27.10;100.00
49723;BME280;43484;43.608;1.458;2022-08-03T08:22:55;99586.06;;;27.15;100.00
49723;BME280;43484;43.608;1.458;2022-08-03T08:25:25;99598.66;;;27.29;100.00
49723;BME280;43484;43.608;1.458;2022-08-03T08:27:52;99595.00;;;27.33;100.00
49723;BME280;43484;43.608;1.458;2022-08-03T08:30:39;99594.66;;;27.40;100.00
49723;BME280;43484;43.608;1.458;2022-08-03T08:33:05;99597.09;;;27.45;100.00
49723;BME280;43484;43.608;1.458;2022-08-03T08:35:35;99594.13;;;27.52;100.00
49723;BME280;43484;43.608;1.458;2022-08-03T08:38:02;99597.34;;;27.59;100.00
49723;BME280;43484;43.608;1.458;2022-08-03T08:40:32;99591.16;;;27.80;99.14
49723;BME280;43484;43.608;1.458;2022-08-03T08:42:58;99592.44;;;27.91;98.28
49723;BME280;43484;43.608;1.458;2022-08-03T08:45:25;99594.63;;;28.00;96.75
49723;BME280;43484;43.608;1.458;2022-08-03T08:47:54;99582.53;;;28.15;95.80
49723;BME280;43484;43.608;1.458;2022-08-03T08:50:29;99592.09;;;28.17;95.99
49723;BME280;43484;43.608;1.458;2022-08-03T08:52:59;99589.47;;;28.17;95.07
49723;BME280;43484;43.608;1.458;2022-08-03T08:55:28;99589.53;;;28.34;92.13
49723;BME280;43484;43.608;1.458;2022-08-03T08:58:15;99591.88;;;28.41;91.91
49723;BME280;43484;43.608;1.458;2022-08-03T09:00:46;99591.19;;;28.56;90.75
49723;BME280;43484;43.608;1.458;2022-08-03T09:03:13;99598.13;;;28.58;90.08
49723;BME280;43484;43.608;1.458;2022-08-03T09:05:57;99596.19;;;28.62;89.53
49723;BME280;43484;43.608;1.458;2022-08-03T09:08:24;99597.59;;;28.69;88.84
49723;BME280;43484;43.608;1.458;2022-08-03T09:10:51;99605.66;;;28.66;88.62
49723;BME280;43484;43.608;1.458;2022-08-03T09:13:18;99596.91;;;28.65;88.09
49723;BME280;43484;43.608;1.458;2022-08-03T09:15:45;99599.56;;;28.82;87.00
49723;BME280;43484;43.608;1.458;2022-08-03T09:18:29;99604.31;;;28.93;85.56
49723;BME280;43484;43.608;1.458;2022-08-03T09:21:21;99594.63;;;28.93;85.77
49723;BME280;43484;43.608;1.458;2022-08-03T09:23:59;99592.41;;;29.03;85.70
49723;BME280;43484;43.608;1.458;2022-08-03T09:26:30;99589.44;;;29.10;84.70
49723;BME280;43484;43.608;1.458;2022-08-03T09:31:45;99595.56;;;29.28;82.16
49723;BME280;43484;43.608;1.458;2022-08-03T09:34:16;99596.09;;;29.34;81.95
49723;BME280;43484;43.608;1.458;2022-08-03T09:36:48;99596.00;;;29.36;81.36
49723;BME280;43484;43.608;1.458;2022-08-03T09:39:20;99591.69;;;29.52;79.63
49723;BME280;43484;43.608;1.458;2022-08-03T09:44:41;99591.97;;;29.63;75.73
49723;BME280;43484;43.608;1.458;2022-08-03T09:47:12;99590.34;;;29.61;76.21
49723;BME280;43484;43.608;1.458;2022-08-03T09:49:41;99595.31;;;29.84;74.18
49723;BME280;43484;43.608;1.458;2022-08-03T09:52:17;99597.31;;;29.96;72.05
49723;BME280;43484;43.608;1.458;2022-08-03T09:55:12;99586.50;;;30.00;69.24
49723;BME280;43484;43.608;1.458;2022-08-03T09:58:06;99597.22;;;30.13;68.70
49723;BME280;43484;43.608;1.458;2022-08-03T10:01:01;99590.25;;;30.12;66.43
49723;BME280;43484;43.608;1.458;2022-08-03T10:03:33;99588.38;;;30.14;65.26
49723;BME280;43484;43.608;1.458;2022-08-03T10:06:19;99590.94;;;30.15;65.73
49723;BME280;43484;43.608;1.458;2022-08-03T10:09:09;99591.00;;;30.31;66.77
49723;BME280;43484;43.608;1.458;2022-08-03T10:11:38;99590.84;;;30.34;66.92
49723;BME280;43484;43.608;1.458;2022-08-03T10:14:16;99584.09;;;30.44;65.20
49723;BME280;43484;43.608;1.458;2022-08-03T10:16:47;99583.56;;;30.53;61.34
49723;BME280;43484;43.608;1.458;2022-08-03T10:19:14;99588.25;;;30.48;59.52
49723;BME280;43484;43.608;1.458;2022-08-03T10:21:49;99587.25;;;30.50;57.98
49723;BME280;43484;43.608;1.458;2022-08-03T10:24:23;99588.63;;;30.57;56.80
49723;BME280;43484;43.608;1.458;2022-08-03T10:26:52;99585.53;;;30.65;55.15
49723;BME280;43484;43.608;1.458;2022-08-03T10:29:23;99580.25;;;30.65;54.86
49723;BME280;43484;43.608;1.458;2022-08-03T10:31:57;99577.91;;;30.74;53.04
49723;BME280;43484;43.608;1.458;2022-08-03T10:34:26;99575.28;;;30.74;52.18
49723;BME280;43484;43.608;1.458;2022-08-03T10:36:56;99570.88;;;30.91;51.15
49723;BME280;43484;43.608;1.458;2022-08-03T10:39:27;99569.75;;;30.95;52.25
49723;BME280;43484;43.608;1.458;2022-08-03T10:41:55;99568.03;;;30.94;51.78
49723;BME280;43484;43.608;1.458;2022-08-03T10:44:32;99564.88;;;31.03;51.20
49723;BME280;43484;43.608;1.458;2022-08-03T10:47:03;99561.09;;;31.07;50.07
49723;BME280;43484;43.608;1.458;2022-08-03T10:49:31;99571.63;;;31.22;52.51
49723;BME280;43484;43.608;1.458;2022-08-03T10:52:02;99557.44;;;31.23;51.40
49723;BME280;43484;43.608;1.458;2022-08-03T10:54:40;99557.28;;;31.26;50.71
49723;BME280;43484;43.608;1.458;2022-08-03T11:00:20;99564.84;;;31.48;48.32
49723;BME280;43484;43.608;1.458;2022-08-03T11:05:34;99562.66;;;31.54;45.82
49723;BME280;43484;43.608;1.458;2022-08-03T11:08:32;99556.78;;;31.63;46.63
49723;BME280;43484;43.608;1.458;2022-08-03T11:14:03;99555.47;;;31.70;46.78
49723;BME280;43484;43.608;1.458;2022-08-03T11:16:34;99551.72;;;31.74;46.44
49723;BME280;43484;43.608;1.458;2022-08-03T11:19:03;99542.34;;;31.69;47.06
49723;BME280;43484;43.608;1.458;2022-08-03T11:51:00;99501.84;;;32.50;42.13
49723;BME280;43484;43.608;1.458;2022-08-03T11:53:27;99506.72;;;32.43;41.73
49723;BME280;43484;43.608;1.458;2022-08-03T11:55:58;99504.88;;;32.44;41.69
49723;BME280;43484;43.608;1.458;2022-08-03T11:58:25;99502.25;;;32.44;41.31
49723;BME280;43484;43.608;1.458;2022-08-03T12:01:13;99495.59;;;32.51;41.08
49723;BME280;43484;43.608;1.458;2022-08-03T12:03:48;99499.31;;;32.48;42.09
49723;BME280;43484;43.608;1.458;2022-08-03T12:06:16;99489.34;;;32.52;42.44
49723;BME280;43484;43.608;1.458;2022-08-03T12:08:44;99483.22;;;32.64;43.09
49723;BME280;43484;43.608;1.458;2022-08-03T12:11:14;99490.78;;;32.70;42.77
49723;BME280;43484;43.608;1.458;2022-08-03T12:13:43;99488.69;;;32.75;41.13
49723;BME280;43484;43.608;1.458;2022-08-03T12:16:30;99482.50;;;32.74;41.54
49723;BME280;43484;43.608;1.458;2022-08-03T12:19:02;99479.69;;;32.90;41.13
49723;BME280;43484;43.608;1.458;2022-08-03T12:21:30;99489.31;;;33.05;39.52
49723;BME280;43484;43.608;1.458;2022-08-03T12:24:00;99494.19;;;32.98;37.48
49723;BME280;43484;43.608;1.458;2022-08-03T12:26:28;99485.38;;;32.98;37.17
49723;BME280;43484;43.608;1.458;2022-08-03T12:28:55;99481.13;;;32.95;37.74
49723;BME280;43484;43.608;1.458;2022-08-03T12:31:22;99490.78;;;32.96;38.16
49723;BME280;43484;43.608;1.458;2022-08-03T12:34:02;99491.31;;;33.01;37.32
49723;BME280;43484;43.608;1.458;2022-08-03T12:36:31;99489.31;;;33.05;37.00
49723;BME280;43484;43.608;1.458;2022-08-03T12:39:04;99495.56;;;33.04;36.96
49723;BME280;43484;43.608;1.458;2022-08-03T12:41:33;99481.44;;;33.03;36.28
49723;BME280;43484;43.608;1.458;2022-08-03T12:44:05;99484.84;;;33.06;35.79
49723;BME280;43484;43.608;1.458;2022-08-03T12:46:36;99486.00;;;33.01;34.48
49723;BME280;43484;43.608;1.458;2022-08-03T12:49:10;99483.47;;;33.13;34.18
49723;BME280;43484;43.608;1.458;2022-08-03T12:54:22;99478.03;;;33.01;34.82
49723;BME280;43484;43.608;1.458;2022-08-03T12:57:03;99464.66;;;33.03;34.36
49723;BME280;43484;43.608;1.458;2022-08-03T12:59:35;99466.47;;;33.02;35.09
49723;BME280;43484;43.608;1.458;2022-08-03T13:04:41;99461.38;;;33.25;34.47
49723;BME280;43484;43.608;1.458;2022-08-03T13:07:08;99460.00;;;33.32;33.14
49723;BME280;43484;43.608;1.458;2022-08-03T13:12:15;99456.38;;;33.33;31.77
49723;BME280;43484;43.608;1.458;2022-08-03T13:14:45;99446.84;;;33.43;32.89
49723;BME280;43484;43.608;1.458;2022-08-03T13:17:13;99448.00;;;33.51;33.09
49723;BME280;43484;43.608;1.458;2022-08-03T13:19:43;99444.94;;;33.45;33.19
49723;BME280;43484;43.608;1.458;2022-08-03T13:22:15;99442.59;;;33.53;33.85
49723;BME280;43484;43.608;1.458;2022-08-03T13:24:44;99443.44;;;33.66;33.31
49723;BME280;43484;43.608;1.458;2022-08-03T13:27:11;99436.13;;;33.57;31.90
49723;BME280;43484;43.608;1.458;2022-08-03T13:29:58;99446.00;;;33.55;29.33
49723;BME280;43484;43.608;1.458;2022-08-03T13:32:24;99436.97;;;33.45;29.69
49723;BME280;43484;43.608;1.458;2022-08-03T13:34:51;99425.31;;;33.47;30.14
49723;BME280;43484;43.608;1.458;2022-08-03T13:37:18;99428.78;;;33.60;32.49
49723;BME280;43484;43.608;1.458;2022-08-03T13:39:44;99424.97;;;33.64;33.20
49723;BME280;43484;43.608;1.458;2022-08-03T13:42:29;99427.38;;;33.67;33.15
49723;BME280;43484;43.608;1.458;2022-08-03T13:44:55;99421.19;;;33.79;33.70
49723;BME280;43484;43.608;1.458;2022-08-03T13:47:22;99428.72;;;33.85;33.96
49723;BME280;43484;43.608;1.458;2022-08-03T13:49:49;99416.91;;;33.89;33.90
49723;BME280;43484;43.608;1.458;2022-08-03T13:52:26;99411.91;;;33.85;34.35
49723;BME280;43484;43.608;1.458;2022-08-03T13:54:53;99409.59;;;33.80;33.77
49723;BME280;43484;43.608;1.458;2022-08-03T13:57:19;99403.00;;;33.86;34.43
49723;BME280;43484;43.608;1.458;2022-08-03T14:00:07;99396.19;;;33.94;33.55
49723;BME280;43484;43.608;1.458;2022-08-03T14:02:34;99396.72;;;33.99;33.19
49723;BME280;43484;43.608;1.458;2022-08-03T14:05:00;99399.53;;;34.09;34.14
49723;BME280;43484;43.608;1.458;2022-08-03T14:07:27;99395.50;;;34.03;33.51
49723;BME280;43484;43.608;1.458;2022-08-03T14:09:53;99391.69;;;34.07;33.24
49723;BME280;43484;43.608;1.458;2022-08-03T14:12:20;99394.44;;;34.06;32.99
49723;BME280;43484;43.608;1.458;2022-08-03T14:14:46;99386.50;;;34.17;32.14
49723;BME280;43484;43.608;1.458;2022-08-03T14:17:13;99388.81;;;34.21;32.12
49723;BME280;43484;43.608;1.458;2022-08-03T14:19:41;99381.31;;;34.15;31.43
49723;BME280;43484;43.608;1.458;2022-08-03T14:22:20;99376.09;;;34.14;31.32
49723;BME280;43484;43.608;1.458;2022-08-03T14:24:47;99372.19;;;34.07;31.36
49723;BME280;43484;43.608;1.458;2022-08-03T14:27:15;99366.66;;;34.10;31.35
49723;BME280;43484;43.608;1.458;2022-08-03T14:29:42;99376.09;;;34.14;31.81